KGLS

Scholes International at Galveston Airport

Galveston, Texas, USA
METAR KGLS 231252Z 01021G28KT 10SM OVC015 17/13 A3010 RMK AO2 PK WND 01031/1214 SLP192 T01720128
Observed Flight Rules
Oct-23 @ 12:52 UTC (an hour ago) Marginal Visual Flight Rules
Wind Visibility Clouds
10° at 21 knots
 Gusting to 28 knots
10 miles
  • Overcast at 1,500' AGL
Temperatures Readings
Current 17°C / 63°F
Dewpoint 13°C / 55°F
Humidity 77%
Altimeter 30.1" Hg
Pressure 1019.2 hPa
Elevation 6
METAR KGLS 231252Z 01021G28KT 10SM OVC015 17/13 A3010 RMK AO2 PK WND 01031/1214 SLP192 T01720128
Observed Flight Rules
Oct-23 @ 12:52 UTC
(an hour ago)
MVFR
Wind Visibility
10° at 21 knots
 Gusting to 28 knots
10 miles
Clouds
  • Overcast at 1,500' AGL
Temperature Dewpoint
17°C / 63°F 13°C / 55°F
Humidity Altimeter Pressure
77% 30.1" Hg 1019.2 hPa